Newton-le-Willows, United Kingdom
Current Conditions -  °F | °C
As of 4:50 PM on Thursday 30 Oct 2014 (Local Time) from EGGP Reporting Station
Broken Clouds Broken Clouds  
Wind Chill: 61°   Ceiling: 4600
Heat Index: 61°   Visibility: 6mi
Dew Point: 57°   Wind: 8mph
Humidity: 88%   Direction: 150°SSE
Pressure: 29.94"   Gusts: NA
Location:  53.45°N, 2.6°W
Report Text: EGGP 301650Z 15007KT 100V190 9999 FEW028 BKN046 16/14 Q1014
Loading
Personal Weather Stations






























Interactive Weather Map
Tropical Storm Tracking
New forecast layout! Learn more

10-Day Weather Forecast

Advertisements
Track Severe Weather on mobile